sensor_id;sensor_type;location;lat;lon;timestamp;pressure;altitude;pressure_sealevel;temperature;humidity
16690;BME280;8458;52.220;9.884;2023-03-14T00:00:49;98300.34;;;12.42;82.28
16690;BME280;8458;52.220;9.884;2023-03-14T00:03:16;98297.22;;;12.44;82.54
16690;BME280;8458;52.220;9.884;2023-03-14T00:05:42;98282.84;;;12.42;83.14
16690;BME280;8458;52.220;9.884;2023-03-14T00:08:09;98266.19;;;12.42;83.58
16690;BME280;8458;52.220;9.884;2023-03-14T00:10:36;98252.28;;;12.42;83.83
16690;BME280;8458;52.220;9.884;2023-03-14T00:13:05;98233.84;;;12.37;84.52
16690;BME280;8458;52.220;9.884;2023-03-14T00:15:32;98238.69;;;12.49;84.23
16690;BME280;8458;52.220;9.884;2023-03-14T00:17:58;98245.19;;;12.53;84.18
16690;BME280;8458;52.220;9.884;2023-03-14T00:20:25;98267.63;;;12.48;84.85
16690;BME280;8458;52.220;9.884;2023-03-14T00:22:51;98247.50;;;12.51;84.90
16690;BME280;8458;52.220;9.884;2023-03-14T00:25:18;98241.13;;;12.50;85.07
16690;BME280;8458;52.220;9.884;2023-03-14T00:27:44;98244.25;;;12.49;85.42
16690;BME280;8458;52.220;9.884;2023-03-14T00:30:12;98254.06;;;12.46;85.50
16690;BME280;8458;52.220;9.884;2023-03-14T00:32:39;98266.19;;;12.42;85.87
16690;BME280;8458;52.220;9.884;2023-03-14T00:35:08;98266.19;;;12.42;85.89
16690;BME280;8458;52.220;9.884;2023-03-14T00:37:35;98258.19;;;12.40;86.15
16690;BME280;8458;52.220;9.884;2023-03-14T00:40:01;98259.94;;;12.45;86.29
16690;BME280;8458;52.220;9.884;2023-03-14T00:42:31;98279.59;;;12.40;86.10
16690;BME280;8458;52.220;9.884;2023-03-14T00:44:58;98281.41;;;12.35;86.07
16690;BME280;8458;52.220;9.884;2023-03-14T00:47:26;98280.13;;;12.33;85.93
16690;BME280;8458;52.220;9.884;2023-03-14T00:49:52;98298.78;;;12.24;85.94
16690;BME280;8458;52.220;9.884;2023-03-14T00:52:19;98297.97;;;12.23;85.70
16690;BME280;8458;52.220;9.884;2023-03-14T00:54:45;98286.56;;;12.16;86.25
16690;BME280;8458;52.220;9.884;2023-03-14T00:57:12;98270.41;;;12.18;86.30
16690;BME280;8458;52.220;9.884;2023-03-14T00:59:38;98265.97;;;12.17;85.95
16690;BME280;8458;52.220;9.884;2023-03-14T01:02:05;98247.22;;;12.14;85.46
16690;BME280;8458;52.220;9.884;2023-03-14T01:04:34;98249.00;;;12.10;85.40
16690;BME280;8458;52.220;9.884;2023-03-14T01:07:02;98249.69;;;12.07;85.56
16690;BME280;8458;52.220;9.884;2023-03-14T01:09:29;98231.22;;;12.11;85.10
16690;BME280;8458;52.220;9.884;2023-03-14T01:11:55;98233.31;;;12.14;84.79
16690;BME280;8458;52.220;9.884;2023-03-14T01:14:22;98224.53;;;12.12;84.41
16690;BME280;8458;52.220;9.884;2023-03-14T01:16:48;98227.09;;;12.17;84.66
16690;BME280;8458;52.220;9.884;2023-03-14T01:19:15;98234.78;;;12.11;84.67
16690;BME280;8458;52.220;9.884;2023-03-14T01:21:42;98242.00;;;12.12;84.83
16690;BME280;8458;52.220;9.884;2023-03-14T01:24:10;98245.63;;;12.04;85.16
16690;BME280;8458;52.220;9.884;2023-03-14T01:26:37;98236.00;;;12.01;85.15
16690;BME280;8458;52.220;9.884;2023-03-14T01:29:04;98217.19;;;12.07;84.90
16690;BME280;8458;52.220;9.884;2023-03-14T01:31:30;98207.22;;;12.06;84.51
16690;BME280;8458;52.220;9.884;2023-03-14T01:33:57;98211.31;;;12.09;84.34
16690;BME280;8458;52.220;9.884;2023-03-14T01:36:23;98221.56;;;12.08;84.27
16690;BME280;8458;52.220;9.884;2023-03-14T01:38:51;98218.00;;;12.08;84.31
16690;BME280;8458;52.220;9.884;2023-03-14T01:41:20;98222.09;;;12.01;83.98
16690;BME280;8458;52.220;9.884;2023-03-14T01:43:48;98231.09;;;11.98;84.14
16690;BME280;8458;52.220;9.884;2023-03-14T01:46:20;98229.47;;;11.97;84.09
16690;BME280;8458;52.220;9.884;2023-03-14T01:49:02;98235.03;;;11.97;83.81
16690;BME280;8458;52.220;9.884;2023-03-14T01:51:34;98227.19;;;11.99;83.98
16690;BME280;8458;52.220;9.884;2023-03-14T01:54:10;98195.47;;;12.00;83.65
16690;BME280;8458;52.220;9.884;2023-03-14T01:56:38;98211.47;;;12.04;83.17
16690;BME280;8458;52.220;9.884;2023-03-14T01:59:08;98189.94;;;12.00;83.30
16690;BME280;8458;52.220;9.884;2023-03-14T02:01:36;98189.41;;;12.07;82.56
16690;BME280;8458;52.220;9.884;2023-03-14T02:04:05;98188.91;;;12.05;82.92
16690;BME280;8458;52.220;9.884;2023-03-14T02:06:40;98184.53;;;12.04;82.53
16690;BME280;8458;52.220;9.884;2023-03-14T02:09:08;98177.34;;;12.03;82.35
16690;BME280;8458;52.220;9.884;2023-03-14T02:11:35;98182.09;;;12.02;82.21
16690;BME280;8458;52.220;9.884;2023-03-14T02:14:02;98175.56;;;11.98;82.04
16690;BME280;8458;52.220;9.884;2023-03-14T02:16:30;98193.88;;;11.99;81.87
16690;BME280;8458;52.220;9.884;2023-03-14T02:18:56;98200.09;;;11.96;81.95
16690;BME280;8458;52.220;9.884;2023-03-14T02:21:29;98198.78;;;11.94;81.87
16690;BME280;8458;52.220;9.884;2023-03-14T02:24:09;98199.63;;;11.86;81.94
16690;BME280;8458;52.220;9.884;2023-03-14T02:26:42;98205.97;;;11.86;81.73
16690;BME280;8458;52.220;9.884;2023-03-14T02:29:11;98209.09;;;11.84;81.78
16690;BME280;8458;52.220;9.884;2023-03-14T02:31:38;98217.09;;;11.86;81.59
16690;BME280;8458;52.220;9.884;2023-03-14T02:34:05;98204.06;;;11.78;81.68
16690;BME280;8458;52.220;9.884;2023-03-14T02:36:32;98194.59;;;11.79;81.55
16690;BME280;8458;52.220;9.884;2023-03-14T02:39:05;98192.97;;;11.78;81.39
16690;BME280;8458;52.220;9.884;2023-03-14T02:41:34;98185.16;;;11.71;81.64
16690;BME280;8458;52.220;9.884;2023-03-14T02:44:00;98177.63;;;11.72;81.65
16690;BME280;8458;52.220;9.884;2023-03-14T02:46:28;98180.59;;;11.66;81.79
16690;BME280;8458;52.220;9.884;2023-03-14T02:48:57;98181.75;;;11.65;81.95
16690;BME280;8458;52.220;9.884;2023-03-14T02:51:26;98176.53;;;11.64;81.81
16690;BME280;8458;52.220;9.884;2023-03-14T02:53:53;98171.13;;;11.68;81.60
16690;BME280;8458;52.220;9.884;2023-03-14T02:56:20;98157.44;;;11.62;81.46
16690;BME280;8458;52.220;9.884;2023-03-14T02:58:46;98157.56;;;11.66;81.21
16690;BME280;8458;52.220;9.884;2023-03-14T03:01:13;98152.84;;;11.66;80.95
16690;BME280;8458;52.220;9.884;2023-03-14T03:03:41;98156.75;;;11.65;80.95
16690;BME280;8458;52.220;9.884;2023-03-14T03:06:07;98149.75;;;11.68;81.21
16690;BME280;8458;52.220;9.884;2023-03-14T03:08:34;98149.06;;;11.71;80.58
16690;BME280;8458;52.220;9.884;2023-03-14T03:11:01;98155.09;;;11.73;80.32
16690;BME280;8458;52.220;9.884;2023-03-14T03:13:28;98159.50;;;11.74;80.07
16690;BME280;8458;52.220;9.884;2023-03-14T03:15:54;98150.34;;;11.74;80.35
16690;BME280;8458;52.220;9.884;2023-03-14T03:18:20;98139.59;;;11.72;79.87
16690;BME280;8458;52.220;9.884;2023-03-14T03:20:48;98140.56;;;11.76;79.95
16690;BME280;8458;52.220;9.884;2023-03-14T03:23:15;98146.25;;;11.80;79.82
16690;BME280;8458;52.220;9.884;2023-03-14T03:25:42;98153.28;;;11.77;79.59
16690;BME280;8458;52.220;9.884;2023-03-14T03:28:08;98145.78;;;11.78;79.65
16690;BME280;8458;52.220;9.884;2023-03-14T03:30:37;98142.03;;;11.74;79.40
16690;BME280;8458;52.220;9.884;2023-03-14T03:33:04;98138.13;;;11.75;79.65
16690;BME280;8458;52.220;9.884;2023-03-14T03:35:31;98139.75;;;11.76;80.08
16690;BME280;8458;52.220;9.884;2023-03-14T03:37:59;98136.47;;;11.74;80.31
16690;BME280;8458;52.220;9.884;2023-03-14T03:40:26;98122.78;;;11.69;80.33
16690;BME280;8458;52.220;9.884;2023-03-14T03:42:52;98133.22;;;11.72;80.42
16690;BME280;8458;52.220;9.884;2023-03-14T03:45:19;98131.41;;;11.76;80.55
16690;BME280;8458;52.220;9.884;2023-03-14T03:47:45;98142.69;;;11.71;80.98
16690;BME280;8458;52.220;9.884;2023-03-14T03:50:12;98150.84;;;11.76;80.56
16690;BME280;8458;52.220;9.884;2023-03-14T03:52:38;98147.78;;;11.69;81.08
16690;BME280;8458;52.220;9.884;2023-03-14T03:55:07;98158.41;;;11.66;82.15
16690;BME280;8458;52.220;9.884;2023-03-14T03:57:33;98156.47;;;11.58;84.81
16690;BME280;8458;52.220;9.884;2023-03-14T04:00:00;98170.38;;;11.50;86.73
16690;BME280;8458;52.220;9.884;2023-03-14T04:02:27;98182.50;;;11.27;87.84
16690;BME280;8458;52.220;9.884;2023-03-14T04:04:53;98228.06;;;11.09;90.38
16690;BME280;8458;52.220;9.884;2023-03-14T04:07:19;98220.72;;;10.78;95.42
16690;BME280;8458;52.220;9.884;2023-03-14T04:09:46;98202.97;;;10.62;97.68
16690;BME280;8458;52.220;9.884;2023-03-14T04:12:14;98202.16;;;10.52;100.00
16690;BME280;8458;52.220;9.884;2023-03-14T04:14:40;98186.81;;;10.37;100.00
16690;BME280;8458;52.220;9.884;2023-03-14T04:17:07;98181.72;;;10.31;100.00
16690;BME280;8458;52.220;9.884;2023-03-14T04:19:34;98181.06;;;10.25;100.00
16690;BME280;8458;52.220;9.884;2023-03-14T04:22:00;98187.25;;;10.13;98.86
16690;BME280;8458;52.220;9.884;2023-03-14T04:24:26;98177.94;;;10.09;96.74
16690;BME280;8458;52.220;9.884;2023-03-14T04:26:53;98192.06;;;9.99;96.07
16690;BME280;8458;52.220;9.884;2023-03-14T04:29:21;98188.97;;;9.92;94.78
16690;BME280;8458;52.220;9.884;2023-03-14T04:31:48;98189.75;;;9.83;93.82
16690;BME280;8458;52.220;9.884;2023-03-14T04:34:14;98188.94;;;9.83;94.28
16690;BME280;8458;52.220;9.884;2023-03-14T04:36:41;98182.25;;;9.75;94.54
16690;BME280;8458;52.220;9.884;2023-03-14T04:39:07;98182.25;;;9.75;95.62
16690;BME280;8458;52.220;9.884;2023-03-14T04:41:33;98170.19;;;9.71;95.26
16690;BME280;8458;52.220;9.884;2023-03-14T04:44:00;98168.38;;;9.66;95.30
16690;BME280;8458;52.220;9.884;2023-03-14T04:46:28;98163.84;;;9.71;95.95
16690;BME280;8458;52.220;9.884;2023-03-14T04:48:54;98165.91;;;9.65;95.99
16690;BME280;8458;52.220;9.884;2023-03-14T04:51:21;98168.69;;;9.65;95.56
16690;BME280;8458;52.220;9.884;2023-03-14T04:53:52;98167.56;;;9.66;95.65
16690;BME280;8458;52.220;9.884;2023-03-14T04:56:18;98160.59;;;9.68;94.77
16690;BME280;8458;52.220;9.884;2023-03-14T04:58:45;98160.38;;;9.65;93.30
16690;BME280;8458;52.220;9.884;2023-03-14T05:01:11;98153.88;;;9.61;93.00
16690;BME280;8458;52.220;9.884;2023-03-14T05:03:39;98157.28;;;9.66;93.11
16690;BME280;8458;52.220;9.884;2023-03-14T05:06:06;98156.50;;;9.66;93.54
16690;BME280;8458;52.220;9.884;2023-03-14T05:08:33;98151.59;;;9.63;94.00
16690;BME280;8458;52.220;9.884;2023-03-14T05:10:59;98158.78;;;9.64;94.28
16690;BME280;8458;52.220;9.884;2023-03-14T05:13:26;98157.78;;;9.60;95.04
16690;BME280;8458;52.220;9.884;2023-03-14T05:15:52;98154.38;;;9.63;95.62
16690;BME280;8458;52.220;9.884;2023-03-14T05:18:20;98136.66;;;9.64;95.58
16690;BME280;8458;52.220;9.884;2023-03-14T05:20:50;98148.50;;;9.64;95.81
16690;BME280;8458;52.220;9.884;2023-03-14T05:23:17;98145.06;;;9.59;95.97
16690;BME280;8458;52.220;9.884;2023-03-14T05:25:43;98135.50;;;9.65;95.97
16690;BME280;8458;52.220;9.884;2023-03-14T05:28:10;98144.25;;;9.58;95.98
16690;BME280;8458;52.220;9.884;2023-03-14T05:30:37;98140.22;;;9.64;96.27
16690;BME280;8458;52.220;9.884;2023-03-14T05:33:03;98128.97;;;9.61;96.23
16690;BME280;8458;52.220;9.884;2023-03-14T05:35:30;98126.34;;;9.56;96.27
16690;BME280;8458;52.220;9.884;2023-03-14T05:37:58;98122.94;;;9.59;96.14
16690;BME280;8458;52.220;9.884;2023-03-14T05:40:25;98124.09;;;9.58;96.04
16690;BME280;8458;52.220;9.884;2023-03-14T05:42:51;98125.53;;;9.55;96.22
16690;BME280;8458;52.220;9.884;2023-03-14T05:45:18;98121.13;;;9.54;95.94
16690;BME280;8458;52.220;9.884;2023-03-14T05:47:44;98129.75;;;9.52;96.20
16690;BME280;8458;52.220;9.884;2023-03-14T05:50:11;98120.31;;;9.54;95.99
16690;BME280;8458;52.220;9.884;2023-03-14T05:52:37;98110.38;;;9.52;96.36
16690;BME280;8458;52.220;9.884;2023-03-14T05:55:06;98117.88;;;9.52;96.13
16690;BME280;8458;52.220;9.884;2023-03-14T05:57:32;98118.19;;;9.50;96.03
16690;BME280;8458;52.220;9.884;2023-03-14T05:59:59;98116.88;;;9.48;96.24
16690;BME280;8458;52.220;9.884;2023-03-14T06:02:25;98113.78;;;9.49;96.01
16690;BME280;8458;52.220;9.884;2023-03-14T06:04:52;98116.06;;;9.47;96.24
16690;BME280;8458;52.220;9.884;2023-03-14T06:07:18;98116.72;;;9.44;96.52
16690;BME280;8458;52.220;9.884;2023-03-14T06:09:45;98120.59;;;9.43;96.74
16690;BME280;8458;52.220;9.884;2023-03-14T06:12:13;98119.78;;;9.43;96.65
16690;BME280;8458;52.220;9.884;2023-03-14T06:14:39;98119.97;;;9.46;96.62
16690;BME280;8458;52.220;9.884;2023-03-14T06:17:06;98127.78;;;9.44;96.60
16690;BME280;8458;52.220;9.884;2023-03-14T06:19:32;98116.06;;;9.47;96.80
16690;BME280;8458;52.220;9.884;2023-03-14T06:21:59;98122.25;;;9.44;96.69
16690;BME280;8458;52.220;9.884;2023-03-14T06:24:25;98120.16;;;9.50;96.83
16690;BME280;8458;52.220;9.884;2023-03-14T06:26:52;98127.19;;;9.56;96.46
16690;BME280;8458;52.220;9.884;2023-03-14T06:29:19;98121.31;;;9.58;96.14
16690;BME280;8458;52.220;9.884;2023-03-14T06:31:46;98131.44;;;9.62;95.70
16690;BME280;8458;52.220;9.884;2023-03-14T06:34:12;98121.00;;;9.68;94.83
16690;BME280;8458;52.220;9.884;2023-03-14T06:36:39;98126.41;;;9.73;94.14
16690;BME280;8458;52.220;9.884;2023-03-14T06:39:05;98133.44;;;9.79;93.97
16690;BME280;8458;52.220;9.884;2023-03-14T06:41:32;98139.78;;;9.80;93.91
16690;BME280;8458;52.220;9.884;2023-03-14T06:43:58;98142.22;;;9.81;94.94
16690;BME280;8458;52.220;9.884;2023-03-14T06:46:26;98147.09;;;9.84;94.22
16690;BME280;8458;52.220;9.884;2023-03-14T06:48:53;98145.34;;;9.89;94.35
16690;BME280;8458;52.220;9.884;2023-03-14T06:51:19;98134.28;;;9.89;94.85
16690;BME280;8458;52.220;9.884;2023-03-14T06:53:46;98148.25;;;9.83;95.75
16690;BME280;8458;52.220;9.884;2023-03-14T06:56:12;98131.63;;;9.83;96.18
16690;BME280;8458;52.220;9.884;2023-03-14T06:58:39;98133.25;;;9.76;97.08
16690;BME280;8458;52.220;9.884;2023-03-14T07:01:10;98140.91;;;9.79;97.77
16690;BME280;8458;52.220;9.884;2023-03-14T07:03:44;98142.50;;;9.71;97.56
16690;BME280;8458;52.220;9.884;2023-03-14T07:06:11;98152.44;;;9.72;98.33
16690;BME280;8458;52.220;9.884;2023-03-14T07:08:37;98149.69;;;9.72;99.03
16690;BME280;8458;52.220;9.884;2023-03-14T07:11:05;98151.31;;;9.73;100.00
16690;BME280;8458;52.220;9.884;2023-03-14T07:13:31;98165.44;;;9.63;100.00
16690;BME280;8458;52.220;9.884;2023-03-14T07:15:58;98165.13;;;9.64;100.00
16690;BME280;8458;52.220;9.884;2023-03-14T07:18:24;98159.56;;;9.64;100.00
16690;BME280;8458;52.220;9.884;2023-03-14T07:20:52;98153.03;;;9.60;100.00
16690;BME280;8458;52.220;9.884;2023-03-14T07:23:18;98155.00;;;9.60;100.00
16690;BME280;8458;52.220;9.884;2023-03-14T07:25:45;98155.50;;;9.62;100.00
16690;BME280;8458;52.220;9.884;2023-03-14T07:28:11;98143.94;;;9.60;100.00
16690;BME280;8458;52.220;9.884;2023-03-14T07:30:38;98146.06;;;9.63;100.00
16690;BME280;8458;52.220;9.884;2023-03-14T07:33:05;98128.81;;;9.66;100.00
16690;BME280;8458;52.220;9.884;2023-03-14T07:35:31;98140.06;;;9.69;100.00
16690;BME280;8458;52.220;9.884;2023-03-14T07:37:59;98123.50;;;9.78;100.00
16690;BME280;8458;52.220;9.884;2023-03-14T07:40:25;98121.84;;;9.77;100.00
16690;BME280;8458;52.220;9.884;2023-03-14T07:42:52;98118.59;;;9.75;100.00
16690;BME280;8458;52.220;9.884;2023-03-14T07:45:20;98123.97;;;9.80;100.00
16690;BME280;8458;52.220;9.884;2023-03-14T07:47:47;98117.63;;;9.80;100.00
16690;BME280;8458;52.220;9.884;2023-03-14T07:50:13;98117.16;;;9.86;100.00
16690;BME280;8458;52.220;9.884;2023-03-14T07:52:40;98117.50;;;9.94;100.00
16690;BME280;8458;52.220;9.884;2023-03-14T07:55:08;98112.97;;;9.98;100.00
16690;BME280;8458;52.220;9.884;2023-03-14T07:57:35;98103.50;;;9.99;100.00
16690;BME280;8458;52.220;9.884;2023-03-14T08:00:02;98106.78;;;10.01;100.00
16690;BME280;8458;52.220;9.884;2023-03-14T08:02:30;98112.16;;;10.06;100.00
16690;BME280;8458;52.220;9.884;2023-03-14T08:04:56;98108.91;;;10.04;100.00
16690;BME280;8458;52.220;9.884;2023-03-14T08:07:23;98110.03;;;10.12;100.00
16690;BME280;8458;52.220;9.884;2023-03-14T08:09:49;98113.78;;;10.16;100.00
16690;BME280;8458;52.220;9.884;2023-03-14T08:12:17;98116.56;;;10.25;100.00
16690;BME280;8458;52.220;9.884;2023-03-14T08:14:44;98117.56;;;10.29;100.00
16690;BME280;8458;52.220;9.884;2023-03-14T08:17:10;98115.63;;;10.38;100.00
16690;BME280;8458;52.220;9.884;2023-03-14T08:19:36;98122.63;;;10.35;100.00
16690;BME280;8458;52.220;9.884;2023-03-14T08:22:03;98133.72;;;10.35;100.00
16690;BME280;8458;52.220;9.884;2023-03-14T08:24:30;98146.25;;;10.33;100.00
16690;BME280;8458;52.220;9.884;2023-03-14T08:26:57;98139.56;;;10.34;100.00
16690;BME280;8458;52.220;9.884;2023-03-14T08:29:25;98150.75;;;10.20;100.00
16690;BME280;8458;52.220;9.884;2023-03-14T08:31:51;98147.31;;;10.14;100.00
16690;BME280;8458;52.220;9.884;2023-03-14T08:34:18;98157.91;;;10.12;100.00
16690;BME280;8458;52.220;9.884;2023-03-14T08:36:45;98150.75;;;10.02;100.00
16690;BME280;8458;52.220;9.884;2023-03-14T08:39:11;98158.66;;;9.86;100.00
16690;BME280;8458;52.220;9.884;2023-03-14T08:41:38;98144.19;;;9.90;100.00
16690;BME280;8458;52.220;9.884;2023-03-14T08:44:08;98145.34;;;9.97;100.00
16690;BME280;8458;52.220;9.884;2023-03-14T08:46:36;98146.66;;;10.00;100.00
16690;BME280;8458;52.220;9.884;2023-03-14T08:49:03;98139.19;;;10.09;100.00
16690;BME280;8458;52.220;9.884;2023-03-14T08:51:29;98136.41;;;10.09;100.00
16690;BME280;8458;52.220;9.884;2023-03-14T08:53:55;98142.78;;;10.18;100.00
16690;BME280;8458;52.220;9.884;2023-03-14T08:56:22;98141.31;;;10.21;100.00
16690;BME280;8458;52.220;9.884;2023-03-14T08:58:48;98147.56;;;10.35;100.00
16690;BME280;8458;52.220;9.884;2023-03-14T09:01:16;98149.69;;;10.47;100.00
16690;BME280;8458;52.220;9.884;2023-03-14T09:03:45;98136.78;;;10.51;100.00
16690;BME280;8458;52.220;9.884;2023-03-14T09:06:13;98148.72;;;10.52;100.00
16690;BME280;8458;52.220;9.884;2023-03-14T09:08:43;98143.31;;;10.55;100.00
16690;BME280;8458;52.220;9.884;2023-03-14T09:11:09;98144.94;;;10.56;100.00
16690;BME280;8458;52.220;9.884;2023-03-14T09:13:36;98146.72;;;10.61;100.00
16690;BME280;8458;52.220;9.884;2023-03-14T09:16:02;98130.44;;;10.68;100.00
16690;BME280;8458;52.220;9.884;2023-03-14T09:18:29;98123.91;;;10.73;100.00
16690;BME280;8458;52.220;9.884;2023-03-14T09:20:57;98123.56;;;10.83;100.00
16690;BME280;8458;52.220;9.884;2023-03-14T09:23:24;98128.28;;;10.91;100.00
16690;BME280;8458;52.220;9.884;2023-03-14T09:25:54;98122.22;;;10.98;100.00
16690;BME280;8458;52.220;9.884;2023-03-14T09:28:21;98123.84;;;11.08;99.75
16690;BME280;8458;52.220;9.884;2023-03-14T09:30:47;98118.44;;;11.20;99.43
16690;BME280;8458;52.220;9.884;2023-03-14T09:33:14;98124.56;;;11.35;98.96
16690;BME280;8458;52.220;9.884;2023-03-14T09:35:41;98125.16;;;11.49;96.80
16690;BME280;8458;52.220;9.884;2023-03-14T09:38:09;98125.47;;;11.56;95.80
16690;BME280;8458;52.220;9.884;2023-03-14T09:40:36;98126.88;;;11.71;95.37
16690;BME280;8458;52.220;9.884;2023-03-14T09:43:03;98121.59;;;11.78;94.84
16690;BME280;8458;52.220;9.884;2023-03-14T09:45:33;98127.31;;;11.82;94.34
16690;BME280;8458;52.220;9.884;2023-03-14T09:48:01;98127.22;;;11.70;92.86
16690;BME280;8458;52.220;9.884;2023-03-14T09:50:32;98130.47;;;11.63;92.85
16690;BME280;8458;52.220;9.884;2023-03-14T09:53:03;98125.31;;;11.53;93.42
16690;BME280;8458;52.220;9.884;2023-03-14T09:55:32;98130.34;;;11.59;93.68
16690;BME280;8458;52.220;9.884;2023-03-14T09:58:00;98127.38;;;11.64;95.01
16690;BME280;8458;52.220;9.884;2023-03-14T10:00:30;98117.91;;;11.65;93.09
16690;BME280;8458;52.220;9.884;2023-03-14T10:03:12;98131.81;;;11.57;94.19
16690;BME280;8458;52.220;9.884;2023-03-14T10:05:45;98141.31;;;11.56;95.74
16690;BME280;8458;52.220;9.884;2023-03-14T10:08:12;98141.91;;;11.61;95.34
16690;BME280;8458;52.220;9.884;2023-03-14T10:10:40;98143.91;;;11.52;95.01
16690;BME280;8458;52.220;9.884;2023-03-14T10:13:14;98145.88;;;11.52;97.38
16690;BME280;8458;52.220;9.884;2023-03-14T10:15:42;98134.03;;;11.34;99.35
16690;BME280;8458;52.220;9.884;2023-03-14T10:18:14;98142.53;;;11.28;100.00
16690;BME280;8458;52.220;9.884;2023-03-14T10:20:41;98135.34;;;11.27;100.00
16690;BME280;8458;52.220;9.884;2023-03-14T10:23:24;98130.78;;;11.32;100.00
16690;BME280;8458;52.220;9.884;2023-03-14T10:26:05;98143.31;;;11.38;100.00
16690;BME280;8458;52.220;9.884;2023-03-14T10:28:34;98136.09;;;11.54;99.68
16690;BME280;8458;52.220;9.884;2023-03-14T10:31:03;98137.66;;;11.64;98.26
16690;BME280;8458;52.220;9.884;2023-03-14T10:33:32;98140.13;;;11.65;97.52
16690;BME280;8458;52.220;9.884;2023-03-14T10:36:00;98141.09;;;11.70;97.29
16690;BME280;8458;52.220;9.884;2023-03-14T10:38:28;98141.34;;;11.77;96.69
16690;BME280;8458;52.220;9.884;2023-03-14T10:40:56;98143.97;;;11.82;97.10
16690;BME280;8458;52.220;9.884;2023-03-14T10:43:26;98132.56;;;12.05;94.04
16690;BME280;8458;52.220;9.884;2023-03-14T10:45:55;98134.47;;;12.13;91.02
16690;BME280;8458;52.220;9.884;2023-03-14T10:48:24;98126.97;;;12.13;89.83
16690;BME280;8458;52.220;9.884;2023-03-14T10:50:56;98128.44;;;12.11;89.68
16690;BME280;8458;52.220;9.884;2023-03-14T10:53:24;98121.25;;;12.10;89.01
16690;BME280;8458;52.220;9.884;2023-03-14T10:55:51;98132.38;;;12.10;87.77
16690;BME280;8458;52.220;9.884;2023-03-14T10:58:30;98127.78;;;12.14;88.66
16690;BME280;8458;52.220;9.884;2023-03-14T11:01:21;98118.31;;;12.15;87.61
16690;BME280;8458;52.220;9.884;2023-03-14T11:03:54;98126.31;;;12.16;87.94
16690;BME280;8458;52.220;9.884;2023-03-14T11:06:26;98134.00;;;12.11;88.18
16690;BME280;8458;52.220;9.884;2023-03-14T11:08:57;98128.16;;;12.04;88.63
16690;BME280;8458;52.220;9.884;2023-03-14T11:11:31;98137.50;;;11.99;89.71
16690;BME280;8458;52.220;9.884;2023-03-14T11:14:08;98147.34;;;11.96;91.01
16690;BME280;8458;52.220;9.884;2023-03-14T11:16:49;98155.16;;;11.94;94.78
16690;BME280;8458;52.220;9.884;2023-03-14T11:19:41;98150.09;;;11.96;94.79
16690;BME280;8458;52.220;9.884;2023-03-14T11:22:16;98146.94;;;12.07;93.99
16690;BME280;8458;52.220;9.884;2023-03-14T11:24:56;98144.16;;;12.07;94.93
16690;BME280;8458;52.220;9.884;2023-03-14T11:27:30;98137.91;;;12.10;91.37
16690;BME280;8458;52.220;9.884;2023-03-14T11:30:12;98143.78;;;12.17;91.21
16690;BME280;8458;52.220;9.884;2023-03-14T11:32:44;98132.38;;;12.10;91.92
16690;BME280;8458;52.220;9.884;2023-03-14T11:35:17;98136.78;;;12.11;89.42
16690;BME280;8458;52.220;9.884;2023-03-14T11:37:52;98145.78;;;12.08;92.24
16690;BME280;8458;52.220;9.884;2023-03-14T11:40:22;98178.22;;;11.86;93.95
16690;BME280;8458;52.220;9.884;2023-03-14T11:42:56;98257.72;;;11.35;100.00
16690;BME280;8458;52.220;9.884;2023-03-14T11:45:30;98264.63;;;9.78;96.33
16690;BME280;8458;52.220;9.884;2023-03-14T11:48:09;98282.97;;;8.61;99.14
16690;BME280;8458;52.220;9.884;2023-03-14T11:50:38;98301.06;;;8.12;100.00
16690;BME280;8458;52.220;9.884;2023-03-14T11:53:09;98298.69;;;7.77;100.00
16690;BME280;8458;52.220;9.884;2023-03-14T11:55:41;98318.88;;;7.59;100.00
16690;BME280;8458;52.220;9.884;2023-03-14T11:58:13;98332.88;;;7.29;100.00
16690;BME280;8458;52.220;9.884;2023-03-14T12:00:44;98343.50;;;7.22;100.00
16690;BME280;8458;52.220;9.884;2023-03-14T12:03:19;98364.84;;;7.30;100.00
16690;BME280;8458;52.220;9.884;2023-03-14T12:06:02;98370.59;;;7.15;100.00
16690;BME280;8458;52.220;9.884;2023-03-14T12:08:43;98392.78;;;7.05;100.00
16690;BME280;8458;52.220;9.884;2023-03-14T12:11:15;98415.09;;;6.84;100.00
16690;BME280;8458;52.220;9.884;2023-03-14T12:13:47;98418.88;;;6.69;100.00
16690;BME280;8458;52.220;9.884;2023-03-14T12:16:32;98429.28;;;6.72;100.00
16690;BME280;8458;52.220;9.884;2023-03-14T12:19:14;98451.69;;;6.66;100.00
16690;BME280;8458;52.220;9.884;2023-03-14T12:21:47;98461.41;;;6.34;100.00
16690;BME280;8458;52.220;9.884;2023-03-14T12:24:19;98467.09;;;6.13;100.00
16690;BME280;8458;52.220;9.884;2023-03-14T12:26:53;98477.13;;;5.99;100.00
16690;BME280;8458;52.220;9.884;2023-03-14T12:29:20;98490.22;;;5.72;100.00
16690;BME280;8458;52.220;9.884;2023-03-14T12:31:49;98514.22;;;5.62;100.00
16690;BME280;8458;52.220;9.884;2023-03-14T12:34:32;98533.84;;;5.45;100.00
16690;BME280;8458;52.220;9.884;2023-03-14T12:37:04;98548.25;;;5.21;100.00
16690;BME280;8458;52.220;9.884;2023-03-14T12:39:39;98559.56;;;5.14;100.00
16690;BME280;8458;52.220;9.884;2023-03-14T12:42:11;98590.88;;;5.13;100.00
16690;BME280;8458;52.220;9.884;2023-03-14T12:44:46;98599.72;;;4.84;100.00
16690;BME280;8458;52.220;9.884;2023-03-14T12:47:47;98614.03;;;4.61;100.00
16690;BME280;8458;52.220;9.884;2023-03-14T12:50:24;98609.66;;;4.44;100.00
16690;BME280;8458;52.220;9.884;2023-03-14T12:53:04;98623.38;;;4.49;100.00
16690;BME280;8458;52.220;9.884;2023-03-14T12:55:36;98654.66;;;4.43;100.00
16690;BME280;8458;52.220;9.884;2023-03-14T12:58:08;98673.31;;;4.41;100.00
16690;BME280;8458;52.220;9.884;2023-03-14T13:00:39;98677.69;;;4.32;100.00
16690;BME280;8458;52.220;9.884;2023-03-14T13:03:18;98674.44;;;4.40;100.00
16690;BME280;8458;52.220;9.884;2023-03-14T13:05:55;98666.75;;;4.53;100.00
16690;BME280;8458;52.220;9.884;2023-03-14T13:08:36;98677.72;;;4.53;100.00
16690;BME280;8458;52.220;9.884;2023-03-14T13:11:04;98701.31;;;4.48;100.00
16690;BME280;8458;52.220;9.884;2023-03-14T13:13:34;98738.34;;;4.46;100.00
16690;BME280;8458;52.220;9.884;2023-03-14T13:16:01;98737.53;;;4.45;100.00
16690;BME280;8458;52.220;9.884;2023-03-14T13:18:35;98753.50;;;4.59;100.00
16690;BME280;8458;52.220;9.884;2023-03-14T13:21:05;98772.69;;;4.54;100.00